Time;durP1;ratioP1;P1;durP2;ratioP2;P2;SDS_P1;SDS_P2;PMS_P1;PMS_P2;Temp;Humidity;BMP_temperature;BMP_pressure;BME280_temperature;BME280_humidity;BME280_pressure;Samples;Min_cycle;Max_cycle;Signal;HPM_P1;HPM_P2
2023/04/25 00:00:10;;;;;;;11.38;6.53;;;13.70;94.60;;;;;;7376538;19;20003;-73
2023/04/25 00:02:38;;;;;;;10.55;6.63;;;13.60;94.70;;;;;;7375727;19;20015;-73
2023/04/25 00:05:11;;;;;;;10.45;6.80;;;13.60;94.70;;;;;;7377184;19;20025;-72
2023/04/25 00:07:41;;;;;;;9.65;6.55;;;13.50;94.50;;;;;;7377616;19;20091;-73
2023/04/25 00:10:11;;;;;;;9.57;6.67;;;13.50;94.40;;;;;;7399149;19;20010;-73
2023/04/25 00:12:41;;;;;;;10.27;6.57;;;13.40;94.60;;;;;;7376651;19;20258;-73
2023/04/25 00:15:10;;;;;;;13.90;6.32;;;13.40;94.70;;;;;;7376192;19;20119;-74
2023/04/25 00:17:40;;;;;;;12.48;5.85;;;13.50;94.80;;;;;;7377257;19;20015;-73
2023/04/25 00:20:13;;;;;;;12.23;6.20;;;13.40;94.50;;;;;;7382216;19;20030;-73
2023/04/25 00:22:41;;;;;;;11.40;6.63;;;13.40;94.50;;;;;;7382348;19;20003;-73
2023/04/25 00:25:11;;;;;;;16.67;5.80;;;13.40;94.40;;;;;;7405780;19;20034;-73
2023/04/25 00:27:41;;;;;;;8.85;5.32;;;13.40;94.10;;;;;;7383581;19;20501;-74
2023/04/25 00:30:11;;;;;;;10.88;5.95;;;13.40;94.40;;;;;;7383316;19;20397;-74
2023/04/25 00:32:40;;;;;;;9.00;5.88;;;13.30;93.90;;;;;;7383658;19;20006;-74
2023/04/25 00:35:12;;;;;;;13.70;5.43;;;13.30;93.90;;;;;;7383827;19;20062;-73
2023/04/25 00:37:40;;;;;;;8.75;5.53;;;13.20;93.70;;;;;;7381921;19;20013;-73
2023/04/25 00:40:10;;;;;;;13.00;6.05;;;13.20;93.60;;;;;;7405725;19;20002;-73
2023/04/25 00:42:41;;;;;;;10.35;5.90;;;13.10;93.80;;;;;;7383168;19;20066;-74
2023/04/25 00:45:15;;;;;;;9.68;6.13;;;13.00;93.50;;;;;;7383784;19;20102;-74
2023/04/25 00:47:45;;;;;;;12.82;6.38;;;13.00;93.60;;;;;;7384236;19;20067;-74
2023/04/25 00:50:16;;;;;;;12.82;6.03;;;12.90;93.80;;;;;;7384287;19;20003;-74
2023/04/25 00:52:47;;;;;;;22.50;7.03;;;12.90;93.70;;;;;;7383582;19;20227;-74
2023/04/25 00:55:16;;;;;;;19.65;6.10;;;12.90;93.60;;;;;;7382038;19;20011;-73
2023/04/25 00:57:45;;;;;;;16.92;6.28;;;12.90;93.40;;;;;;7404685;19;20021;-73
2023/04/25 01:00:14;;;;;;;9.20;5.88;;;12.80;93.50;;;;;;7382072;19;20003;-73
2023/04/25 01:02:44;;;;;;;12.98;6.85;;;12.70;93.20;;;;;;7382430;19;20373;-73
2023/04/25 01:05:15;;;;;;;21.48;5.90;;;12.70;93.30;;;;;;7381650;19;20267;-74
2023/04/25 01:07:44;;;;;;;10.38;5.82;;;12.70;93.70;;;;;;7383405;19;20007;-74
2023/04/25 01:10:13;;;;;;;9.02;5.90;;;12.70;93.40;;;;;;7402612;19;20026;-74
2023/04/25 01:12:42;;;;;;;12.63;6.53;;;12.70;93.50;;;;;;7382473;19;20361;-73
2023/04/25 01:15:12;;;;;;;14.10;7.10;;;12.70;93.50;;;;;;7381961;19;20354;-74
2023/04/25 01:17:41;;;;;;;20.42;7.65;;;12.70;93.40;;;;;;7382550;19;20024;-73
2023/04/25 01:20:12;;;;;;;30.95;8.20;;;12.70;93.50;;;;;;7382352;19;20015;-73
2023/04/25 01:22:43;;;;;;;12.93;7.93;;;12.70;93.40;;;;;;7377455;19;20006;-73
2023/04/25 01:25:12;;;;;;;13.23;7.43;;;12.70;93.40;;;;;;7401754;19;20010;-73
2023/04/25 01:27:41;;;;;;;32.58;7.65;;;12.70;93.50;;;;;;7379124;19;20030;-73
2023/04/25 01:30:11;;;;;;;17.13;8.07;;;12.60;93.40;;;;;;7377439;19;20071;-73
2023/04/25 01:32:40;;;;;;;12.90;7.30;;;12.60;93.40;;;;;;7377735;19;20079;-73
2023/04/25 01:35:11;;;;;;;10.48;6.70;;;12.60;93.40;;;;;;7379620;19;20036;-73
2023/04/25 01:37:43;;;;;;;12.55;6.70;;;12.60;93.10;;;;;;7379405;19;20011;-73
2023/04/25 01:40:14;;;;;;;13.88;7.15;;;12.60;93.10;;;;;;7400869;19;20299;-74
2023/04/25 01:42:46;;;;;;;15.52;6.95;;;12.60;93.40;;;;;;7382465;19;20070;-73
2023/04/25 01:45:14;;;;;;;13.63;6.45;;;12.60;93.40;;;;;;7378941;19;20064;-73
2023/04/25 01:47:46;;;;;;;12.80;6.45;;;12.70;93.60;;;;;;7379898;19;20063;-73
2023/04/25 01:50:15;;;;;;;12.75;6.05;;;12.70;93.60;;;;;;7378929;19;20006;-73
2023/04/25 01:52:46;;;;;;;10.68;6.88;;;12.70;93.60;;;;;;7378517;19;20027;-73
2023/04/25 01:55:15;;;;;;;9.70;6.28;;;12.80;93.60;;;;;;7395690;19;20017;-73
2023/04/25 01:57:44;;;;;;;10.77;6.70;;;12.80;93.40;;;;;;7400302;19;20283;-73
2023/04/25 02:00:14;;;;;;;11.27;6.03;;;12.90;93.50;;;;;;7378060;19;20388;-73
2023/04/25 02:02:43;;;;;;;8.88;6.47;;;12.80;93.50;;;;;;7378850;19;20322;-73
2023/04/25 02:05:12;;;;;;;9.98;5.97;;;12.80;93.40;;;;;;7378715;19;20260;-73
2023/04/25 02:07:41;;;;;;;10.00;6.07;;;12.80;93.70;;;;;;7378996;19;20062;-73
2023/04/25 02:10:12;;;;;;;11.38;6.00;;;12.80;93.60;;;;;;7398626;19;20010;-74
2023/04/25 02:12:41;;;;;;;21.85;10.73;;;12.80;93.40;;;;;;7379752;19;20288;-74
2023/04/25 02:15:10;;;;;;;19.88;9.68;;;12.80;93.50;;;;;;7379972;19;20017;-74
2023/04/25 02:17:39;;;;;;;11.35;6.55;;;12.80;93.40;;;;;;7378216;19;20010;-74
2023/04/25 02:20:09;;;;;;;10.75;6.38;;;12.80;93.20;;;;;;7378922;19;20006;-73
2023/04/25 02:22:38;;;;;;;10.03;5.73;;;12.80;93.20;;;;;;7237428;19;2768894;-73
2023/04/25 02:25:08;;;;;;;16.17;6.72;;;12.80;93.00;;;;;;7399576;19;20006;-73
2023/04/25 02:27:40;;;;;;;13.48;6.50;;;12.80;93.10;;;;;;7379304;19;20250;-73
2023/04/25 02:30:09;;;;;;;;;;;12.80;93.10;;;;;;7379871;19;20019;-73
2023/04/25 02:32:38;;;;;;;12.88;5.72;;;12.80;93.00;;;;;;7379966;19;19914;-73
2023/04/25 02:35:07;;;;;;;16.15;6.30;;;12.80;93.00;;;;;;7379160;19;20349;-73
2023/04/25 02:37:37;;;;;;;11.52;5.75;;;12.60;92.90;;;;;;7377457;19;20296;-73
2023/04/25 02:40:07;;;;;;;18.75;6.50;;;12.60;93.10;;;;;;7401020;19;20066;-73
2023/04/25 02:42:36;;;;;;;14.10;6.05;;;12.60;93.30;;;;;;7378749;19;20020;-73
2023/04/25 02:45:08;;;;;;;18.08;6.95;;;12.50;93.30;;;;;;7379006;19;20006;-73
2023/04/25 02:47:37;;;;;;;18.02;6.55;;;12.60;93.60;;;;;;7379830;19;20078;-71
2023/04/25 02:50:07;;;;;;;24.17;7.18;;;12.60;93.60;;;;;;7379415;19;20023;-72
2023/04/25 02:52:36;;;;;;;13.15;6.10;;;12.50;93.70;;;;;;7379628;19;20091;-72
2023/04/25 02:55:05;;;;;;;13.05;6.55;;;12.40;93.70;;;;;;7400512;19;20019;-73
2023/04/25 02:57:33;;;;;;;14.43;6.13;;;12.50;93.80;;;;;;7378806;19;19999;-73
2023/04/25 03:00:03;;;;;;;15.13;6.32;;;12.60;93.90;;;;;;7379117;19;20011;-73
2023/04/25 03:02:35;;;;;;;13.55;6.45;;;12.70;93.90;;;;;;7379149;19;20099;-73
2023/04/25 03:05:03;;;;;;;13.80;6.43;;;12.70;93.80;;;;;;7380696;19;20044;-73
2023/04/25 03:07:32;;;;;;;14.75;6.78;;;12.70;93.80;;;;;;7379990;19;20028;-73
2023/04/25 03:10:01;;;;;;;14.88;7.10;;;12.70;93.80;;;;;;7401866;19;20578;-74
2023/04/25 03:12:29;;;;;;;16.95;6.50;;;12.70;93.70;;;;;;7378474;19;20126;-73
2023/04/25 03:14:58;;;;;;;17.60;7.20;;;12.70;93.80;;;;;;7378669;19;20083;-73
2023/04/25 03:17:29;;;;;;;14.32;6.47;;;12.70;93.80;;;;;;7378791;19;20023;-73
2023/04/25 03:20:00;;;;;;;11.25;6.53;;;12.70;93.70;;;;;;7379807;19;20009;-73
2023/04/25 03:22:29;;;;;;;19.92;7.05;;;12.70;93.80;;;;;;7379265;19;20090;-73
2023/04/25 03:24:57;;;;;;;20.50;7.50;;;12.70;93.60;;;;;;7400604;19;20274;-73
2023/04/25 03:27:26;;;;;;;24.85;6.78;;;12.70;93.60;;;;;;7380040;19;20003;-73
2023/04/25 03:29:55;;;;;;;14.57;6.20;;;12.70;93.60;;;;;;7378991;19;20010;-73
2023/04/25 03:32:24;;;;;;;22.95;6.80;;;12.70;93.50;;;;;;7378417;19;20365;-73
2023/04/25 03:34:52;;;;;;;21.42;7.10;;;12.70;93.60;;;;;;7378937;19;20010;-73
2023/04/25 03:37:24;;;;;;;16.85;6.28;;;12.70;93.60;;;;;;7378271;19;20238;-73
2023/04/25 03:39:52;;;;;;;19.20;6.82;;;12.60;93.40;;;;;;7399588;19;20006;-73
2023/04/25 03:42:22;;;;;;;18.48;6.45;;;12.60;93.40;;;;;;7377579;19;20062;-73
2023/04/25 03:44:51;;;;;;;16.05;6.60;;;12.60;93.40;;;;;;7378008;19;20373;-74
2023/04/25 03:47:20;;;;;;;22.50;6.78;;;12.60;93.30;;;;;;7378065;19;20031;-73
2023/04/25 03:49:51;;;;;;;16.48;6.68;;;12.60;93.20;;;;;;7376772;19;20006;-73
2023/04/25 03:52:22;;;;;;;13.77;6.03;;;12.60;93.30;;;;;;7377763;19;20013;-73
2023/04/25 03:54:51;;;;;;;20.48;6.80;;;12.70;93.20;;;;;;7403463;19;20019;-73
2023/04/25 03:57:20;;;;;;;19.02;6.20;;;12.70;93.00;;;;;;7384615;19;20002;-73
2023/04/25 03:59:48;;;;;;;25.98;6.63;;;12.60;92.90;;;;;;7385022;19;20003;-73
2023/04/25 04:02:17;;;;;;;16.38;6.57;;;12.60;92.80;;;;;;7383113;19;20023;-73
2023/04/25 04:04:46;;;;;;;19.38;6.82;;;12.60;92.90;;;;;;7383738;19;20354;-73
2023/04/25 04:07:15;;;;;;;19.85;6.55;;;12.60;93.00;;;;;;7406396;19;20002;-74
2023/04/25 04:09:46;;;;;;;16.67;6.57;;;12.60;93.10;;;;;;7384344;19;20003;-74
2023/04/25 04:12:15;;;;;;;17.60;6.47;;;12.50;93.00;;;;;;7384253;19;20072;-74
2023/04/25 04:14:43;;;;;;;14.52;6.22;;;12.60;93.20;;;;;;7384956;19;20002;-74
2023/04/25 04:17:12;;;;;;;18.55;7.13;;;12.60;93.10;;;;;;7384654;19;20010;-74
2023/04/25 04:19:41;;;;;;;13.93;7.10;;;12.50;93.10;;;;;;7385656;19;20011;-73
2023/04/25 04:22:09;;;;;;;19.10;6.55;;;12.50;93.20;;;;;;7404564;19;20019;-73
2023/04/25 04:24:38;;;;;;;17.55;6.72;;;12.50;93.00;;;;;;7382187;19;20011;-73
2023/04/25 04:27:10;;;;;;;15.05;6.72;;;12.50;93.10;;;;;;7383923;19;20074;-73
2023/04/25 04:29:39;;;;;;;21.40;6.47;;;12.60;93.10;;;;;;7384529;19;20003;-73
2023/04/25 04:32:08;;;;;;;13.98;6.57;;;12.60;93.10;;;;;;7385509;19;20007;-73
2023/04/25 04:34:37;;;;;;;15.55;6.43;;;12.60;93.20;;;;;;7383533;19;20541;-73
2023/04/25 04:37:06;;;;;;;23.73;7.05;;;12.70;93.20;;;;;;7406917;19;20017;-73
2023/04/25 04:39:35;;;;;;;19.30;7.53;;;12.70;93.20;;;;;;7383854;19;20030;-73
2023/04/25 04:42:04;;;;;;;18.45;8.00;;;12.70;93.30;;;;;;7383396;19;20013;-74
2023/04/25 04:44:36;;;;;;;19.15;8.20;;;12.80;93.30;;;;;;7383095;19;20066;-74
2023/04/25 04:47:05;;;;;;;24.13;8.95;;;12.70;93.40;;;;;;7382715;19;20003;-73
2023/04/25 04:49:34;;;;;;;15.50;8.20;;;12.60;93.50;;;;;;7381915;19;20354;-73
2023/04/25 04:52:03;;;;;;;27.38;8.50;;;12.70;93.60;;;;;;7402169;19;20006;-73
2023/04/25 04:54:32;;;;;;;28.95;9.40;;;12.70;93.60;;;;;;7382557;19;20010;-73
2023/04/25 04:57:00;;;;;;;25.58;9.10;;;12.70;93.80;;;;;;7383014;19;20074;-73
2023/04/25 04:59:29;;;;;;;24.23;9.48;;;12.70;93.90;;;;;;7383252;19;20016;-74
2023/04/25 05:02:00;;;;;;;32.08;9.52;;;12.70;94.00;;;;;;7381693;19;20027;-74
2023/04/25 05:04:29;;;;;;;23.08;8.95;;;12.70;94.00;;;;;;7382322;19;20046;-74
2023/04/25 05:06:57;;;;;;;26.08;9.65;;;12.50;94.00;;;;;;7403186;19;20008;-74
2023/04/25 05:09:27;;;;;;;20.08;9.95;;;12.50;94.00;;;;;;7383347;19;20062;-74
2023/04/25 05:11:55;;;;;;;34.35;10.27;;;12.60;94.10;;;;;;7382981;19;20349;-73
2023/04/25 05:14:24;;;;;;;34.65;10.05;;;12.50;94.10;;;;;;7382561;19;20283;-73
2023/04/25 05:16:53;;;;;;;35.05;10.25;;;12.30;94.00;;;;;;7382690;19;20010;-73
2023/04/25 05:19:24;;;;;;;19.23;9.35;;;12.40;94.20;;;;;;7382356;19;20027;-73
2023/04/25 05:21:53;;;;;;;;;;;12.40;94.10;;;;;;7403282;19;20074;-72
2023/04/25 05:24:21;;;;;;;20.70;9.82;;;12.60;94.10;;;;;;7381271;19;19983;-72
2023/04/25 05:26:50;;;;;;;21.45;10.63;;;12.40;94.00;;;;;;7383679;19;20010;-74
2023/04/25 05:29:19;;;;;;;31.77;10.35;;;12.40;94.20;;;;;;7383838;19;20011;-73
2023/04/25 05:31:48;;;;;;;22.83;9.82;;;12.40;94.40;;;;;;7386718;19;20003;-73
2023/04/25 05:34:16;;;;;;;25.70;10.93;;;12.50;94.80;;;;;;7403782;19;20066;-73
2023/04/25 05:36:48;;;;;;;24.67;12.27;;;12.60;94.50;;;;;;7381359;19;20062;-73
2023/04/25 05:39:17;;;;;;;37.05;12.73;;;12.60;94.40;;;;;;7381376;19;20010;-73
2023/04/25 05:41:46;;;;;;;26.42;11.63;;;12.70;94.40;;;;;;7381636;19;20070;-73
2023/04/25 05:44:15;;;;;;;29.90;11.68;;;12.70;94.40;;;;;;7382756;19;20014;-74
2023/04/25 05:46:44;;;;;;;24.33;11.27;;;12.80;94.20;;;;;;7383512;19;20381;-75
2023/04/25 05:49:13;;;;;;;29.73;11.25;;;12.60;94.10;;;;;;7403791;19;20035;-72
2023/04/25 05:51:42;;;;;;;27.02;11.43;;;12.70;94.20;;;;;;7381396;19;20015;-73
2023/04/25 05:54:13;;;;;;;24.30;10.98;;;12.70;94.20;;;;;;7381430;19;20015;-72
2023/04/25 05:56:42;;;;;;;27.55;11.85;;;12.70;94.10;;;;;;7381740;19;20003;-76
2023/04/25 05:59:10;;;;;;;28.00;10.88;;;12.70;94.00;;;;;;7381474;19;20109;-75
2023/04/25 06:01:40;;;;;;;24.38;11.27;;;12.60;94.10;;;;;;7381548;19;20055;-72
2023/04/25 06:04:08;;;;;;;26.77;12.10;;;12.60;94.40;;;;;;7401227;19;20009;-73
2023/04/25 06:06:37;;;;;;;34.00;12.15;;;12.50;94.60;;;;;;7380225;19;20082;-73
2023/04/25 06:09:06;;;;;;;27.08;12.23;;;12.50;94.40;;;;;;7380503;19;20052;-73
2023/04/25 06:11:37;;;;;;;32.28;12.57;;;12.40;94.70;;;;;;7380248;19;20007;-73
2023/04/25 06:14:06;;;;;;;32.10;13.07;;;12.40;94.70;;;;;;7380570;19;20504;-74
2023/04/25 06:16:35;;;;;;;34.15;12.50;;;12.20;94.90;;;;;;7379004;19;20406;-73
2023/04/25 06:19:04;;;;;;;31.98;12.77;;;12.30;94.90;;;;;;7401804;19;20070;-74
2023/04/25 06:21:32;;;;;;;28.30;12.27;;;12.30;95.00;;;;;;7378899;19;20096;-72
2023/04/25 06:24:01;;;;;;;31.70;12.07;;;12.40;94.90;;;;;;7379894;19;20058;-72
2023/04/25 06:26:30;;;;;;;32.05;12.93;;;12.30;95.10;;;;;;7378988;19;20083;-72
2023/04/25 06:29:01;;;;;;;25.52;12.32;;;12.40;95.30;;;;;;7379819;19;20055;-73
2023/04/25 06:31:32;;;;;;;40.03;12.50;;;12.40;95.10;;;;;;7383847;19;20010;-73
2023/04/25 06:34:01;;;;;;;26.52;13.13;;;12.50;95.10;;;;;;7402287;19;20014;-74
2023/04/25 06:36:30;;;;;;;26.08;12.63;;;12.50;94.80;;;;;;7380204;19;20032;-73
2023/04/25 06:38:59;;;;;;;25.63;12.23;;;12.60;94.90;;;;;;7381318;19;20369;-74
2023/04/25 06:41:27;;;;;;;34.92;13.50;;;12.50;94.70;;;;;;7380930;19;20010;-72
2023/04/25 06:43:56;;;;;;;32.13;12.85;;;12.40;94.80;;;;;;7381425;19;20003;-73
2023/04/25 06:46:27;;;;;;;29.38;12.55;;;12.40;95.00;;;;;;7377835;19;20075;-73
2023/04/25 06:48:56;;;;;;;32.58;12.60;;;12.40;94.90;;;;;;7398682;19;20019;-72
2023/04/25 06:51:28;;;;;;;30.27;13.27;;;12.50;95.10;;;;;;7379083;19;20023;-73
2023/04/25 06:53:56;;;;;;;27.55;12.63;;;12.50;95.10;;;;;;7379776;19;20110;-71
2023/04/25 06:56:25;;;;;;;24.98;11.77;;;12.50;95.40;;;;;;7380291;19;20013;-70
2023/04/25 06:58:54;;;;;;;39.15;12.43;;;12.60;95.30;;;;;;7378818;19;20281;-72
2023/04/25 07:01:23;;;;;;;20.48;11.75;;;12.60;96.10;;;;;;7380196;19;20031;-72
2023/04/25 07:03:54;;;;;;;23.27;10.95;;;12.70;95.60;;;;;;7401009;19;20430;-71
2023/04/25 07:06:23;;;;;;;20.38;10.30;;;12.70;95.20;;;;;;7376846;19;20374;-72
2023/04/25 07:08:51;;;;;;;22.48;10.15;;;12.70;94.90;;;;;;7379618;19;20006;-72
2023/04/25 07:11:20;;;;;;;24.65;9.02;;;12.50;94.40;;;;;;7379363;19;20015;-72
2023/04/25 07:13:49;;;;;;;27.33;9.88;;;12.60;94.70;;;;;;7377474;19;20007;-72
2023/04/25 07:16:18;;;;;;;20.13;9.30;;;12.70;94.50;;;;;;7400015;19;20027;-71
2023/04/25 07:18:47;;;;;;;18.98;8.38;;;12.90;94.80;;;;;;7377887;19;20286;-72
2023/04/25 07:21:18;;;;;;;16.38;7.38;;;12.80;94.40;;;;;;7377750;19;20015;-72
2023/04/25 07:23:47;;;;;;;17.30;7.43;;;12.80;93.70;;;;;;7378571;19;20074;-72
2023/04/25 07:26:15;;;;;;;19.02;8.35;;;12.70;93.80;;;;;;7378000;19;20014;-72
2023/04/25 07:28:44;;;;;;;14.07;7.43;;;12.80;94.10;;;;;;7379571;19;20023;-71
2023/04/25 07:31:13;;;;;;;20.23;7.60;;;12.70;94.00;;;;;;7410830;19;20018;-72
2023/04/25 07:33:41;;;;;;;14.52;7.68;;;12.80;93.80;;;;;;7384659;19;20417;-73
2023/04/25 07:36:11;;;;;;;16.15;9.65;;;13.00;93.90;;;;;;7385515;19;20014;-72
2023/04/25 07:38:42;;;;;;;18.30;9.57;;;13.00;93.50;;;;;;7384004;19;20002;-73
2023/04/25 07:41:11;;;;;;;;;;;13.10;93.50;;;;;;7386138;19;20011;-73
2023/04/25 07:43:39;;;;;;;20.45;10.18;;;13.20;93.00;;;;;;7386686;19;19957;-73
2023/04/25 07:46:08;;;;;;;21.20;10.77;;;13.30;93.00;;;;;;7403971;19;20375;-73
2023/04/25 07:48:37;;;;;;;24.30;11.48;;;13.40;93.20;;;;;;7386007;19;20074;-73
2023/04/25 07:51:07;;;;;;;22.48;11.43;;;13.40;93.00;;;;;;7386742;19;20007;-73
2023/04/25 07:53:37;;;;;;;24.95;12.73;;;13.20;92.50;;;;;;7387009;19;20009;-73
2023/04/25 07:56:09;;;;;;;25.23;12.90;;;13.20;92.70;;;;;;7385999;19;20365;-73
2023/04/25 07:58:38;;;;;;;25.27;14.10;;;13.30;93.20;;;;;;7385523;19;20020;-72
2023/04/25 08:01:06;;;;;;;27.75;14.85;;;13.10;93.50;;;;;;7404087;19;20024;-72
2023/04/25 08:03:35;;;;;;;28.48;14.05;;;13.00;93.20;;;;;;7384321;19;20007;-72
2023/04/25 08:06:04;;;;;;;33.72;15.68;;;12.90;93.40;;;;;;7384160;19;20070;-72
2023/04/25 08:08:32;;;;;;;33.50;16.38;;;12.80;93.70;;;;;;7387034;19;20405;-72
2023/04/25 08:11:01;;;;;;;39.85;16.52;;;12.70;93.60;;;;;;7386194;19;20012;-72
2023/04/25 08:13:32;;;;;;;33.50;17.30;;;12.70;93.50;;;;;;7385809;19;20024;-73
2023/04/25 08:16:01;;;;;;;43.85;18.45;;;12.60;93.50;;;;;;7406260;19;20019;-73
2023/04/25 08:18:30;;;;;;;43.28;18.10;;;12.80;93.90;;;;;;7384267;19;20006;-72
2023/04/25 08:20:59;;;;;;;43.58;17.55;;;12.80;93.60;;;;;;7383778;19;20026;-72
2023/04/25 08:23:28;;;;;;;37.63;17.67;;;13.00;93.20;;;;;;7384602;19;20034;-72
2023/04/25 08:25:56;;;;;;;41.40;17.17;;;13.00;92.60;;;;;;7383274;19;20062;-73
2023/04/25 08:28:25;;;;;;;34.95;15.90;;;13.10;92.60;;;;;;7383699;19;20011;-73
2023/04/25 08:30:56;;;;;;;38.55;15.52;;;13.20;92.30;;;;;;7407930;19;20086;-73
2023/04/25 08:33:25;;;;;;;33.28;14.90;;;13.10;91.70;;;;;;7383243;19;20226;-73
2023/04/25 08:35:54;;;;;;;37.05;15.35;;;13.30;92.00;;;;;;7383423;19;20011;-72
2023/04/25 08:38:23;;;;;;;46.92;15.30;;;13.50;92.20;;;;;;7383641;19;20405;-71
2023/04/25 08:40:53;;;;;;;36.05;14.40;;;13.40;91.60;;;;;;7383027;19;20082;-71
2023/04/25 08:43:22;;;;;;;39.85;14.95;;;13.50;91.50;;;;;;7386737;19;20354;-71
2023/04/25 08:45:51;;;;;;;34.58;15.15;;;13.40;91.40;;;;;;7401854;19;20485;-71
2023/04/25 08:48:23;;;;;;;33.58;13.93;;;13.50;91.40;;;;;;7382971;19;20291;-72
2023/04/25 08:50:54;;;;;;;32.95;14.60;;;13.40;91.00;;;;;;7383519;19;20063;-73
2023/04/25 08:53:27;;;;;;;36.17;14.57;;;13.50;91.20;;;;;;7383909;19;20289;-72
2023/04/25 08:55:58;;;;;;;30.15;13.73;;;13.50;91.20;;;;;;7383282;19;20278;-72
2023/04/25 08:58:27;;;;;;;31.95;14.23;;;13.10;91.00;;;;;;7381195;19;20002;-73
2023/04/25 09:00:55;;;;;;;42.85;14.70;;;13.10;91.20;;;;;;7406173;19;20007;-73
2023/04/25 09:03:27;;;;;;;35.72;13.77;;;13.10;91.80;;;;;;7384297;19;19998;-73
2023/04/25 09:05:57;;;;;;;33.97;13.30;;;13.10;91.60;;;;;;7382547;19;20007;-73
2023/04/25 09:08:26;;;;;;;28.17;12.82;;;12.80;91.30;;;;;;7384324;19;20010;-72
2023/04/25 09:10:55;;;;;;;25.90;11.65;;;12.90;91.40;;;;;;7381971;19;20073;-73
2023/04/25 09:13:28;;;;;;;26.70;11.52;;;12.80;91.10;;;;;;7381189;19;20027;-71
2023/04/25 09:15:58;;;;;;;27.73;11.93;;;12.90;91.40;;;;;;7402912;19;20007;-71
2023/04/25 09:18:31;;;;;;;37.20;17.13;;;13.10;91.50;;;;;;7383885;19;20016;-71
2023/04/25 09:21:08;;;;;;;31.63;13.57;;;13.10;91.10;;;;;;7382337;19;20011;-73
2023/04/25 09:23:47;;;;;;;31.90;12.32;;;13.30;91.50;;;;;;7382275;19;20059;-73
2023/04/25 09:26:18;;;;;;;26.15;11.23;;;13.50;91.00;;;;;;7383555;19;20003;-73
2023/04/25 09:28:47;;;;;;;26.92;11.25;;;13.60;90.90;;;;;;7382576;19;20366;-73
2023/04/25 09:31:25;;;;;;;22.35;10.55;;;13.70;90.50;;;;;;7405241;19;20235;-73
2023/04/25 09:34:02;;;;;;;23.13;10.43;;;13.50;90.20;;;;;;7381645;19;20357;-73
2023/04/25 09:36:32;;;;;;;30.77;10.68;;;13.40;90.50;;;;;;7382691;19;19999;-73
2023/04/25 09:39:03;;;;;;;28.83;11.10;;;13.40;90.00;;;;;;7381627;19;20003;-73
2023/04/25 09:41:32;;;;;;;21.45;10.25;;;13.30;90.60;;;;;;7382314;19;20051;-74
2023/04/25 09:44:01;;;;;;;29.55;10.43;;;13.30;90.10;;;;;;7382363;19;20024;-74
2023/04/25 09:46:36;;;;;;;31.50;11.95;;;13.40;90.50;;;;;;7381364;19;20023;-74
2023/04/25 09:49:09;;;;;;;29.02;10.90;;;13.50;90.50;;;;;;7403600;19;20016;-75
2023/04/25 09:51:38;;;;;;;26.02;11.90;;;13.60;90.40;;;;;;7379884;19;20002;-74
2023/04/25 09:54:06;;;;;;;26.58;10.85;;;13.70;90.30;;;;;;7382515;19;20019;-75
2023/04/25 09:56:38;;;;;;;26.05;11.52;;;13.80;90.80;;;;;;7382697;19;20027;-74
2023/04/25 09:59:09;;;;;;;25.38;10.88;;;13.70;89.50;;;;;;7382430;19;20002;-72
2023/04/25 10:01:42;;;;;;;31.60;11.63;;;13.50;90.00;;;;;;7380627;19;20014;-72
2023/04/25 10:04:14;;;;;;;26.27;10.40;;;13.40;89.90;;;;;;7403834;19;20079;-73
2023/04/25 10:06:46;;;;;;;24.80;10.52;;;13.30;90.30;;;;;;7380456;19;20003;-73
2023/04/25 10:09:15;;;;;;;;;;;13.40;90.50;;;;;;7381359;19;20083;-74
2023/04/25 10:11:45;;;;;;;30.20;10.00;;;13.60;90.90;;;;;;7382765;19;19993;-74
2023/04/25 10:14:15;;;;;;;25.75;10.30;;;13.70;90.40;;;;;;7383778;19;20014;-74
2023/04/25 10:16:45;;;;;;;28.88;9.85;;;13.70;89.10;;;;;;7382198;19;20426;-74
2023/04/25 10:19:16;;;;;;;24.02;9.52;;;13.80;89.30;;;;;;7401088;19;20009;-73
2023/04/25 10:21:52;;;;;;;24.55;9.40;;;13.80;89.20;;;;;;7379235;19;20027;-73
2023/04/25 10:24:22;;;;;;;25.20;9.77;;;13.90;89.30;;;;;;7380563;19;20089;-72
2023/04/25 10:26:52;;;;;;;21.92;9.75;;;13.80;86.90;;;;;;7379267;19;20074;-73
2023/04/25 10:29:28;;;;;;;26.55;9.18;;;13.60;87.20;;;;;;7380535;19;20010;-72
2023/04/25 10:31:57;;;;;;;25.55;9.55;;;13.80;88.90;;;;;;7381399;19;20023;-72
2023/04/25 10:34:42;;;;;;;21.77;7.95;;;13.90;89.20;;;;;;7381498;19;20382;-73
2023/04/25 10:37:14;;;;;;;19.70;7.78;;;13.90;88.40;;;;;;7402277;19;20477;-73
2023/04/25 10:39:43;;;;;;;25.90;9.30;;;14.00;86.90;;;;;;7379235;19;20080;-72
2023/04/25 10:42:12;;;;;;;18.90;8.13;;;14.20;86.50;;;;;;7379179;19;20030;-73
2023/04/25 10:44:41;;;;;;;28.10;8.93;;;14.40;85.60;;;;;;7379547;19;20098;-72
2023/04/25 10:47:11;;;;;;;23.88;9.30;;;14.50;86.50;;;;;;7379040;19;20007;-73
2023/04/25 10:49:45;;;;;;;24.98;9.90;;;14.50;85.60;;;;;;7379403;19;20354;-72
2023/04/25 10:52:19;;;;;;;31.50;10.77;;;14.40;84.10;;;;;;7401297;19;20066;-71
2023/04/25 10:54:52;;;;;;;22.58;8.90;;;14.40;83.80;;;;;;7379270;19;20377;-73
2023/04/25 10:57:31;;;;;;;22.67;7.90;;;14.40;82.20;;;;;;7378980;19;20009;-72
2023/04/25 11:00:09;;;;;;;18.20;7.45;;;14.20;82.10;;;;;;7381769;19;20019;-74
2023/04/25 11:02:40;;;;;;;23.95;7.50;;;14.20;84.00;;;;;;7382062;19;20005;-73
2023/04/25 11:05:12;;;;;;;20.20;7.57;;;14.30;83.10;;;;;;7379127;19;20025;-73
2023/04/25 11:07:47;;;;;;;18.73;7.07;;;14.30;83.80;;;;;;7377686;19;20260;-72
2023/04/25 11:10:17;;;;;;;16.92;7.03;;;14.30;83.60;;;;;;7401351;19;20007;-73
2023/04/25 11:12:45;;;;;;;21.75;7.65;;;14.40;83.70;;;;;;7378326;19;20030;-73
2023/04/25 11:15:14;;;;;;;23.25;7.80;;;14.40;84.60;;;;;;7378339;19;20409;-73
2023/04/25 11:17:46;;;;;;;24.73;7.82;;;14.40;83.30;;;;;;7379058;19;20003;-73
2023/04/25 11:20:17;;;;;;;24.13;7.97;;;14.30;83.30;;;;;;7381290;19;20010;-73
2023/04/25 11:22:48;;;;;;;18.48;7.63;;;14.40;84.80;;;;;;7378561;19;20007;-72
2023/04/25 11:25:18;;;;;;;21.73;7.18;;;14.30;83.50;;;;;;7401384;19;20010;-73
2023/04/25 11:27:53;;;;;;;21.50;7.07;;;14.40;84.30;;;;;;7378234;19;20003;-73
2023/04/25 11:30:24;;;;;;;19.27;6.75;;;14.40;83.70;;;;;;7378850;19;20088;-74
2023/04/25 11:32:53;;;;;;;14.48;6.05;;;14.50;85.00;;;;;;7379590;19;20361;-73
2023/04/25 11:35:25;;;;;;;16.85;5.88;;;14.60;83.90;;;;;;7378965;19;20106;-74
2023/04/25 11:37:54;;;;;;;23.58;6.13;;;14.70;83.50;;;;;;7378042;19;20002;-73
2023/04/25 11:40:23;;;;;;;19.33;7.57;;;14.80;82.80;;;;;;7388055;19;20003;-73
2023/04/25 11:42:52;;;;;;;16.27;5.63;;;14.90;82.10;;;;;;7399599;19;20027;-73
2023/04/25 11:45:21;;;;;;;12.27;5.78;;;14.90;81.20;;;;;;7378959;19;20232;-72
2023/04/25 11:47:50;;;;;;;18.50;5.00;;;14.80;80.10;;;;;;7377359;19;20037;-72
2023/04/25 11:50:18;;;;;;;14.25;4.35;;;14.90;80.20;;;;;;7377324;19;20070;-72
2023/04/25 11:52:53;;;;;;;15.82;4.57;;;14.90;79.50;;;;;;7378484;19;20011;-73
2023/04/25 11:55:23;;;;;;;13.07;4.60;;;15.10;80.10;;;;;;7400372;19;20030;-72
2023/04/25 11:57:52;;;;;;;18.47;5.17;;;15.20;80.10;;;;;;7379746;19;20014;-72
2023/04/25 12:00:23;;;;;;;16.40;5.10;;;15.30;81.00;;;;;;7379760;19;20028;-72
2023/04/25 12:02:55;;;;;;;16.02;5.55;;;15.20;77.20;;;;;;7379779;19;20019;-72
2023/04/25 12:05:26;;;;;;;;;;;15.20;78.70;;;;;;7379370;19;20030;-73
2023/04/25 12:07:57;;;;;;;16.40;4.93;;;15.20;78.20;;;;;;7376770;19;20123;-73
2023/04/25 12:10:27;;;;;;;13.35;5.22;;;15.40;79.00;;;;;;7377938;19;20011;-73
2023/04/25 12:12:56;;;;;;;12.35;4.95;;;15.40;78.50;;;;;;7399532;19;20007;-72
2023/04/25 12:15:27;;;;;;;16.15;4.72;;;15.50;77.10;;;;;;7382378;19;20377;-73
2023/04/25 12:17:57;;;;;;;17.48;4.93;;;15.50;77.90;;;;;;7385043;19;20003;-73
2023/04/25 12:20:27;;;;;;;14.65;4.85;;;15.60;77.00;;;;;;7384512;19;20018;-72
2023/04/25 12:23:00;;;;;;;14.18;4.50;;;15.70;75.20;;;;;;7383349;19;20003;-72
2023/04/25 12:25:39;;;;;;;11.70;4.30;;;15.70;76.00;;;;;;7384712;19;20236;-73
2023/04/25 12:28:16;;;;;;;14.05;4.90;;;15.80;77.40;;;;;;7403604;19;20249;-72
2023/04/25 12:31:00;;;;;;;14.23;4.88;;;15.60;75.70;;;;;;7383697;19;20002;-72
2023/04/25 12:33:30;;;;;;;12.90;4.80;;;15.60;76.40;;;;;;7384145;19;20029;-74
2023/04/25 12:36:00;;;;;;;16.85;4.95;;;15.40;76.00;;;;;;7383514;19;20007;-73
2023/04/25 12:38:40;;;;;;;16.77;5.75;;;15.40;75.50;;;;;;7382668;19;20009;-74
2023/04/25 12:41:09;;;;;;;16.97;5.20;;;15.40;76.30;;;;;;7386422;19;20020;-74
2023/04/25 12:43:38;;;;;;;19.80;5.00;;;15.40;76.60;;;;;;7384981;19;20003;-74
2023/04/25 12:46:07;;;;;;;12.27;4.60;;;15.40;76.40;;;;;;7405679;19;20014;-75
2023/04/25 12:48:38;;;;;;;18.25;5.05;;;15.40;76.30;;;;;;7383004;19;20043;-75